Aeroporto :
LOGIN :

Iscrizione | Disclaimer

   EN    FR    IT 

 










Sommario :    VFR   VFR Marginale   IFR   IFR Intensivo   IFR Molto Intensivo
Visibilità : 
Base nubi : 
>= 8 km
>= 3000ft
5 / 8 km
1000 / 3000 ft
1500m / 5 km
500 / 1000 ft
800 / 1500m
200 / 500 ft
< 800m
< 200 ft
Simboli :   Temporali  Nebbia  Neve Forte  Precipitazioni Forti  Vento > 20 kt
SIGMETs :   Varie  Temporali  Ghiacco  Turbolenza  Onda orograficha  Ceneri Vulcaniche






- Altitudine del aeroporto : 158 ft
- Codice IATA : QAR


EHDL - Deelen Airbase

ULTIMO METAR :
  • 110455Z AUTO 20012KT 160V250 9999 DZ SCT004 BKN005 BKN006 FEW015CB 06/06 Q1008 YLO

METARs OBSOLETI :
  • 110425Z AUTO 20011KT 150V250 9999 -RADZ SCT005 BKN006 FEW015CB 06/05 Q1008 YLO
  • 110355Z AUTO 20013KT 150V240 9999 -RA FEW005 BKN006 BKN007 FEW015CB 06/05 Q1008 YLO
  • 110325Z AUTO 20014KT 160V240 9999 -SHRA SCT006 BKN007 BKN008 SCT015CB 06/05 Q1008 RERA REDZ YLO
  • 110255Z AUTO 20013KT 100V250 9999 -DZ FEW008 BKN009 BKN011 FEW015CB 06/05 Q1009 REDZ GRN

TAF TAF EHDL
Valido dal 10 a 18 ore il 11 a 06 ore UTC


101728Z 1018/1106 18017G30KT 9999 FEW045 BKN080
BECMG 1023/1102 SCT018 BKN020
BECMG 1101/1104 21010KT
TEMPO 1101/1106 4500 -RADZ SCT012 BKN015
PROB40
TEMPO 1104/1106 2500 DZRA SCT008 BKN012



MetMap, La meteo Aeronautica in un colpo d'occhio ! - Copyright ORBIFLY Dicembre 2007 - Disclaimer

ORBIFLY MET'MAP TEAM :

Programmazione e sviluppo : Alexandra Zaïnal
Concezione : Baudouin d'Aumeries
Aiuto per la programmazione : Marc-Olivier Méhu
Supporto tecnico e logistico : Manuel Goepfert
Aiuto per la traduzione : Arnaldo La Scala

Contatto : metmap@orbifly.com




FONTI E CREDITI :

   NOAA